Time;durP1;ratioP1;P1;durP2;ratioP2;P2;SDS_P1;SDS_P2;PMS_P1;PMS_P2;Temp;Humidity;BMP_temperature;BMP_pressure;BME280_temperature;BME280_humidity;BME280_pressure;Samples;Min_cycle;Max_cycle;Signal;HPM_P1;HPM_P2
2023/10/14 00:00:24;;;;;;;11.85;9.10;;;;;22.40;98921.00;;;;2075035;28;20238;-56
2023/10/14 00:01:20;;;;;;;14.70;10.55;;;;;22.40;98896.00;;;;2073509;28;20271;-57
2023/10/14 00:02:24;;;;;;;12.80;9.10;;;;;22.30;98909.00;;;;2068685;28;20257;-59
2023/10/14 00:03:27;;;;;;;12.25;9.45;;;;;22.40;98912.00;;;;2061983;28;20218;-57
2023/10/14 00:04:30;;;;;;;12.95;9.68;;;;;22.40;98908.00;;;;2070147;28;20509;-58
2023/10/14 00:05:31;;;;;;;18.25;9.60;;;;;22.40;98906.00;;;;2072869;28;20218;-58
2023/10/14 00:06:38;;;;;;;15.47;9.90;;;;;22.40;98908.00;;;;2071571;28;20245;-56
2023/10/14 00:07:38;;;;;;;19.42;9.85;;;;;22.40;98921.00;;;;2064813;28;20348;-57
2023/10/14 00:08:48;;;;;;;13.70;9.90;;;;;22.40;98911.00;;;;2080392;28;20263;-58
2023/10/14 00:09:50;;;;;;;12.48;9.40;;;;;22.40;98920.00;;;;2069376;28;20229;-56
2023/10/14 00:10:50;;;;;;;12.98;9.50;;;;;22.40;98914.00;;;;2072315;28;20222;-58
2023/10/14 00:11:55;;;;;;;11.83;10.27;;;;;22.40;98909.00;;;;2069856;28;20222;-57
2023/10/14 00:12:56;;;;;;;13.93;9.98;;;;;22.40;98905.00;;;;2064204;28;20292;-56
2023/10/14 00:13:56;;;;;;;11.00;9.00;;;;;22.40;98910.00;;;;2072524;28;20214;-57
2023/10/14 00:15:03;;;;;;;13.90;9.47;;;;;22.40;98904.00;;;;2071778;28;20690;-58
2023/10/14 00:16:10;;;;;;;12.25;9.50;;;;;22.30;98913.00;;;;2076052;28;20213;-58
2023/10/14 00:17:17;;;;;;;13.68;9.48;;;;;22.40;98923.00;;;;2079602;28;20256;-55
2023/10/14 00:18:18;;;;;;;12.25;8.40;;;;;22.30;98941.00;;;;2067732;28;20303;-55
2023/10/14 00:19:19;;;;;;;12.13;10.07;;;;;22.40;98915.00;;;;2070243;28;20316;-57
2023/10/14 00:20:19;;;;;;;16.00;10.40;;;;;22.40;98915.00;;;;2071929;28;20237;-58
2023/10/14 00:21:20;;;;;;;13.40;9.70;;;;;22.40;98913.00;;;;2065779;28;20719;-58
2023/10/14 00:22:20;;;;;;;9.50;8.50;;;;;22.30;98927.00;;;;2064270;28;20582;-56
2023/10/14 00:23:24;;;;;;;12.77;9.47;;;;;22.30;98918.00;;;;2064037;28;20256;-56
2023/10/14 00:24:27;;;;;;;9.88;8.60;;;;;22.40;98925.00;;;;2068832;28;20221;-57
2023/10/14 00:25:27;;;;;;;14.30;9.70;;;;;22.40;98955.00;;;;2075041;28;20223;-57
2023/10/14 00:26:27;;;;;;;11.43;9.03;;;;;22.30;98919.00;;;;2070800;28;20934;-59
2023/10/14 00:27:28;;;;;;;10.30;9.37;;;;;22.30;98937.00;;;;2063176;28;20342;-56
2023/10/14 00:28:28;;;;;;;10.97;9.57;;;;;22.30;98923.00;;;;2075612;28;20368;-57
2023/10/14 00:29:29;;;;;;;12.10;8.97;;;;;22.30;98941.00;;;;2077645;28;20225;-56
2023/10/14 00:30:31;;;;;;;13.27;9.83;;;;;22.30;98945.00;;;;2073844;28;20253;-56
2023/10/14 00:31:34;;;;;;;11.85;9.18;;;;;22.40;98956.00;;;;2070418;28;20213;-57
2023/10/14 00:32:34;;;;;;;9.20;8.18;;;;;22.30;98958.00;;;;2066836;28;20593;-56
2023/10/14 00:33:35;;;;;;;11.63;9.00;;;;;21.90;98956.00;;;;2071057;28;20256;-55
2023/10/14 00:34:35;;;;;;;11.02;9.45;;;;;22.30;98951.00;;;;2070332;28;20230;-57
2023/10/14 00:35:39;;;;;;;11.80;9.17;;;;;22.30;98963.00;;;;2066520;28;20736;-56
2023/10/14 00:36:40;;;;;;;13.80;9.70;;;;;22.30;98889.00;;;;2071941;28;20206;-56
2023/10/14 00:37:40;;;;;;;10.37;8.50;;;;;22.30;98953.00;;;;2065293;28;20325;-55
2023/10/14 00:38:44;;;;;;;10.83;9.20;;;;;22.30;98963.00;;;;2078674;28;21557;-56
2023/10/14 00:39:45;;;;;;;9.88;8.88;;;;;22.30;98949.00;;;;2079918;28;20218;-57
2023/10/14 00:40:47;;;;;;;14.47;9.23;;;;;22.30;98967.00;;;;2072562;28;20305;-56
2023/10/14 00:41:50;;;;;;;12.23;8.93;;;;;22.30;98964.00;;;;2076609;28;20681;-56
2023/10/14 00:42:51;;;;;;;13.35;9.30;;;;;22.30;98980.00;;;;2059291;28;20290;-57
2023/10/14 00:43:52;;;;;;;12.10;8.70;;;;;22.30;98971.00;;;;2072763;28;20217;-56
2023/10/14 00:44:53;;;;;;;9.75;8.40;;;;;22.30;98957.00;;;;2067883;28;20222;-59
2023/10/14 00:45:53;;;;;;;13.70;7.90;;;;;22.30;98958.00;;;;2069375;28;20264;-59
2023/10/14 00:46:54;;;;;;;12.80;9.00;;;;;22.30;98962.00;;;;2066378;28;20226;-56
2023/10/14 00:47:55;;;;;;;11.13;9.23;;;;;21.70;98954.00;;;;2052600;28;21161;-56
2023/10/14 00:48:58;;;;;;;10.67;9.27;;;;;22.30;98946.00;;;;2065163;28;20462;-58
2023/10/14 00:49:59;;;;;;;9.88;8.88;;;;;22.30;98953.00;;;;2063875;28;20709;-57
2023/10/14 00:51:04;;;;;;;10.10;8.90;;;;;22.30;98946.00;;;;2064593;28;20211;-57
2023/10/14 00:52:07;;;;;;;11.82;8.50;;;;;22.30;98948.00;;;;2082216;28;20616;-57
2023/10/14 00:53:08;;;;;;;9.57;8.68;;;;;22.30;98823.00;;;;2066857;28;20229;-57
2023/10/14 00:54:11;;;;;;;10.77;8.70;;;;;22.30;98941.00;;;;2079838;28;20222;-58
2023/10/14 00:55:14;;;;;;;10.85;8.77;;;;;22.30;98931.00;;;;2067639;28;20218;-58
2023/10/14 00:56:18;;;;;;;14.50;8.38;;;;;22.30;98940.00;;;;2066307;28;20313;-56
2023/10/14 00:58:27;;;;;;;10.10;8.30;;;;;22.30;98946.00;;;;2063608;28;20592;-57
2023/10/14 00:59:28;;;;;;;11.73;8.13;;;;;22.30;98994.00;;;;2072916;28;20213;-56
2023/10/14 01:00:37;;;;;;;9.10;7.73;;;;;22.30;98964.00;;;;2064372;28;20231;-56
2023/10/14 01:01:58;;;;;;;13.82;8.85;;;;;22.30;98959.00;;;;2069138;28;20229;-56
2023/10/14 01:03:01;;;;;;;9.15;7.57;;;;;22.30;98968.00;;;;2063640;28;20249;-56
2023/10/14 01:04:21;;;;;;;11.70;8.23;;;;;22.30;98973.00;;;;2073547;28;20221;-57
2023/10/14 01:05:21;;;;;;;9.27;8.35;;;;;22.30;98976.00;;;;2073133;28;21041;-57
2023/10/14 01:06:23;;;;;;;13.23;8.33;;;;;22.30;98971.00;;;;2072293;28;20257;-55
2023/10/14 01:07:26;;;;;;;10.65;8.70;;;;;22.30;98967.00;;;;2072306;28;20268;-58
2023/10/14 01:08:29;;;;;;;10.50;8.55;;;;;22.30;98967.00;;;;2070467;28;20257;-56
2023/10/14 01:10:39;;;;;;;10.52;7.75;;;;;22.30;98951.00;;;;2074286;28;20241;-55
2023/10/14 01:11:41;;;;;;;9.47;7.40;;;;;22.30;98960.00;;;;2075051;28;20214;-56
2023/10/14 01:12:45;;;;;;;13.10;9.27;;;;;22.30;98961.00;;;;2065691;28;20214;-57
2023/10/14 01:13:45;;;;;;;8.45;7.40;;;;;22.30;98954.00;;;;2071601;28;20221;-57
2023/10/14 01:14:46;;;;;;;11.93;8.60;;;;;22.30;98961.00;;;;2083074;28;20214;-56
2023/10/14 01:15:50;;;;;;;10.83;7.33;;;;;22.30;98971.00;;;;2076064;28;20938;-57
2023/10/14 01:16:51;;;;;;;10.55;7.20;;;;;22.30;98975.00;;;;2076785;28;20536;-56
2023/10/14 01:17:52;;;;;;;11.10;9.20;;;;;22.30;98998.00;;;;2062003;28;20218;-56
2023/10/14 01:18:53;;;;;;;8.90;7.85;;;;;22.30;99009.00;;;;2070920;28;20221;-56
2023/10/14 01:19:54;;;;;;;11.17;8.20;;;;;22.30;99028.00;;;;2071795;28;20782;-58
2023/10/14 01:20:57;;;;;;;8.60;7.80;;;;;22.30;99060.00;;;;2069137;28;22274;-58
2023/10/14 01:21:57;;;;;;;9.35;7.75;;;;;22.30;99087.00;;;;2068458;28;20230;-56
2023/10/14 01:22:58;;;;;;;10.00;8.00;;;;;22.30;99059.00;;;;2065865;28;20347;-55
2023/10/14 01:23:58;;;;;;;8.60;7.57;;;;;22.30;99068.00;;;;2072552;28;20305;-56
2023/10/14 01:25:01;;;;;;;9.90;7.40;;;;;22.30;99055.00;;;;2072291;28;20866;-57
2023/10/14 01:26:04;;;;;;;8.75;7.85;;;;;22.30;99062.00;;;;2067237;28;20218;-56
2023/10/14 01:27:06;;;;;;;9.55;7.25;;;;;22.30;99059.00;;;;2068947;28;20291;-58
2023/10/14 01:28:12;;;;;;;9.82;7.85;;;;;22.30;99070.00;;;;2057955;28;20661;-57
2023/10/14 01:29:14;;;;;;;9.65;7.95;;;;;22.30;99074.00;;;;2060206;28;20743;-58
2023/10/14 01:30:19;;;;;;;8.50;7.60;;;;;22.30;99068.00;;;;2061474;28;20681;-56
2023/10/14 01:31:34;;;;;;;11.23;7.63;;;;;22.30;99076.00;;;;2070298;28;20221;-56
2023/10/14 01:33:36;;;;;;;9.63;7.43;;;;;22.30;99089.00;;;;2067174;28;20217;-55
2023/10/14 01:34:42;;;;;;;10.98;7.35;;;;;22.30;99088.00;;;;2072325;28;20738;-55
2023/10/14 01:35:45;;;;;;;8.07;7.28;;;;;22.30;99087.00;;;;2068860;28;20674;-56
2023/10/14 01:36:46;;;;;;;9.77;7.15;;;;;22.30;99085.00;;;;2066396;28;20253;-56
2023/10/14 01:37:47;;;;;;;8.52;7.30;;;;;22.30;99098.00;;;;2058319;28;20683;-56
2023/10/14 01:39:32;;;;;;;8.83;6.93;;;;;22.30;99105.00;;;;2074989;28;20213;-58
2023/10/14 01:41:38;;;;;;;8.63;6.65;;;;;22.30;99121.00;;;;2068319;28;20218;-57
2023/10/14 01:42:38;;;;;;;8.17;6.50;;;;;22.30;99122.00;;;;2055635;28;20288;-57
2023/10/14 01:43:39;;;;;;;8.23;7.20;;;;;22.30;99124.00;;;;2072406;28;20244;-56
2023/10/14 01:44:41;;;;;;;10.35;7.00;;;;;22.30;99128.00;;;;2067566;28;20625;-58
2023/10/14 01:45:50;;;;;;;8.55;6.20;;;;;22.30;99136.00;;;;2067272;28;20218;-58
2023/10/14 01:46:55;;;;;;;8.70;6.50;;;;;22.30;99139.00;;;;2070733;28;20218;-57
2023/10/14 01:48:55;;;;;;;7.45;5.70;;;;;22.30;99140.00;;;;2058271;28;20237;-55
2023/10/14 01:49:27;;;;;;;6.50;5.60;;;;;22.30;99140.00;;;;2061897;28;20242;-57
2023/10/14 01:50:27;;;;;;;7.60;6.80;;;;;22.20;99139.00;;;;2068697;28;20226;-59
2023/10/14 01:51:33;;;;;;;9.17;5.77;;;;;22.30;99136.00;;;;2068079;28;20218;-60
2023/10/14 01:52:34;;;;;;;6.93;5.50;;;;;22.20;99139.00;;;;2054160;28;20215;-57
2023/10/14 01:53:36;;;;;;;7.40;5.90;;;;;22.20;99137.00;;;;2077731;28;20220;-57
2023/10/14 01:54:39;;;;;;;6.72;5.85;;;;;22.30;99134.00;;;;2073356;28;20266;-58
2023/10/14 01:55:42;;;;;;;7.47;5.90;;;;;22.20;99134.00;;;;2069917;28;20218;-57
2023/10/14 01:56:43;;;;;;;7.72;6.22;;;;;22.20;99124.00;;;;2067863;28;20210;-57
2023/10/14 01:57:46;;;;;;;6.50;5.23;;;;;22.30;99130.00;;;;2058836;28;20242;-56
2023/10/14 01:58:52;;;;;;;8.32;5.75;;;;;22.20;99144.00;;;;2068285;28;20973;-57
2023/10/14 01:59:55;;;;;;;7.55;5.32;;;;;22.20;99141.00;;;;2071604;28;20217;-55
2023/10/14 02:02:09;;;;;;;5.35;4.85;;;;;22.20;99134.00;;;;2065912;28;20226;-57
2023/10/14 02:03:10;;;;;;;6.10;5.50;;;;;22.20;99144.00;;;;2059081;28;20210;-56
2023/10/14 02:04:14;;;;;;;7.25;4.75;;;;;22.30;99154.00;;;;2071432;28;20224;-57
2023/10/14 02:05:15;;;;;;;7.20;5.22;;;;;22.20;99147.00;;;;2062181;28;20696;-55
2023/10/14 02:06:30;;;;;;;5.63;4.70;;;;;22.20;99155.00;;;;2062512;28;20288;-58
2023/10/14 02:07:30;;;;;;;5.18;4.65;;;;;22.20;99168.00;;;;2042501;28;20250;-56
2023/10/14 02:08:30;;;;;;;6.73;5.00;;;;;22.20;99165.00;;;;2066421;28;20318;-57
2023/10/14 02:09:31;;;;;;;5.47;4.80;;;;;22.20;99167.00;;;;2074932;28;20209;-57
2023/10/14 02:10:35;;;;;;;6.70;5.13;;;;;22.30;99171.00;;;;2067677;28;20911;-56
2023/10/14 02:11:36;;;;;;;5.85;4.82;;;;;22.20;99168.00;;;;2068776;28;20559;-57
2023/10/14 02:12:36;;;;;;;4.93;4.43;;;;;22.20;99168.00;;;;2060813;28;20212;-57
2023/10/14 02:13:36;;;;;;;6.37;4.63;;;;;22.20;99177.00;;;;2066993;28;20222;-56
2023/10/14 02:14:40;;;;;;;5.30;4.40;;;;;22.20;99169.00;;;;2073061;28;20214;-56
2023/10/14 02:15:40;;;;;;;5.35;4.55;;;;;22.20;99173.00;;;;2067849;28;20571;-57
2023/10/14 02:16:44;;;;;;;4.67;4.27;;;;;22.20;99168.00;;;;2065681;28;20253;-58
2023/10/14 02:17:47;;;;;;;4.40;3.10;;;;;22.20;99173.00;;;;2063496;28;20223;-56
2023/10/14 02:18:48;;;;;;;6.00;4.18;;;;;22.20;99171.00;;;;2069245;28;20219;-56
2023/10/14 02:19:52;;;;;;;5.50;4.30;;;;;22.20;99182.00;;;;2072723;28;20923;-57
2023/10/14 02:21:05;;;;;;;5.35;3.70;;;;;22.20;99175.00;;;;2067640;28;20254;-57
2023/10/14 02:22:09;;;;;;;4.90;3.72;;;;;22.20;99179.00;;;;2066823;28;20230;-56
2023/10/14 02:23:11;;;;;;;7.05;4.60;;;;;22.20;99181.00;;;;2053574;28;20214;-57
2023/10/14 02:24:11;;;;;;;4.40;3.63;;;;;22.20;99190.00;;;;2071925;28;20221;-56
2023/10/14 02:25:15;;;;;;;4.20;3.70;;;;;22.20;99199.00;;;;2069772;28;20214;-57
2023/10/14 02:26:24;;;;;;;5.13;3.47;;;;;22.20;99205.00;;;;2069218;28;20237;-57
2023/10/14 02:27:24;;;;;;;3.88;3.58;;;;;22.20;99202.00;;;;2061709;28;20281;-56
2023/10/14 02:28:39;;;;;;;3.77;3.47;;;;;22.20;99285.00;;;;2050191;28;20218;-57
2023/10/14 02:29:44;;;;;;;4.68;3.40;;;;;22.20;99206.00;;;;2067657;28;20692;-57
2023/10/14 02:30:51;;;;;;;4.05;3.42;;;;;22.20;99211.00;;;;2067101;28;20750;-57
2023/10/14 02:31:51;;;;;;;4.30;3.45;;;;;22.20;99209.00;;;;2064183;28;20220;-56
2023/10/14 02:32:51;;;;;;;5.30;3.37;;;;;22.20;99207.00;;;;2061390;28;20233;-57
2023/10/14 02:33:52;;;;;;;3.63;3.23;;;;;22.20;99211.00;;;;2073015;28;20235;-57
2023/10/14 02:34:52;;;;;;;4.23;3.30;;;;;22.20;99215.00;;;;2071235;28;20264;-57
2023/10/14 02:35:57;;;;;;;3.47;3.00;;;;;22.20;99218.00;;;;2073096;28;20377;-57
2023/10/14 02:37:01;;;;;;;3.40;3.10;;;;;22.20;99214.00;;;;2067837;28;20232;-57
2023/10/14 02:38:04;;;;;;;5.88;3.15;;;;;22.20;99222.00;;;;2058637;28;20272;-57
2023/10/14 02:39:14;;;;;;;5.93;3.40;;;;;22.20;99219.00;;;;2067058;28;20218;-56
2023/10/14 02:40:24;;;;;;;4.68;3.10;;;;;22.20;99231.00;;;;2072043;28;20217;-57
2023/10/14 02:41:31;;;;;;;3.92;3.42;;;;;22.20;99238.00;;;;2076006;28;20224;-56
2023/10/14 02:42:32;;;;;;;3.53;3.05;;;;;22.20;99248.00;;;;2054271;28;20447;-57
2023/10/14 02:43:36;;;;;;;3.70;2.70;;;;;22.20;99236.00;;;;2071753;28;20225;-57
2023/10/14 02:44:48;;;;;;;3.10;2.80;;;;;22.20;99227.00;;;;2067809;28;20284;-57
2023/10/14 02:45:49;;;;;;;3.17;2.70;;;;;22.10;99241.00;;;;2067504;28;20210;-57
2023/10/14 02:46:54;;;;;;;3.77;2.90;;;;;22.20;99244.00;;;;2066668;28;20241;-57
2023/10/14 02:48:01;;;;;;;3.00;2.63;;;;;22.20;99254.00;;;;2059799;28;20487;-57
2023/10/14 02:49:06;;;;;;;3.40;2.60;;;;;22.20;99250.00;;;;2067931;28;20257;-57
2023/10/14 02:50:11;;;;;;;5.78;2.83;;;;;22.20;99255.00;;;;2066356;28;20263;-57
2023/10/14 02:51:16;;;;;;;2.85;2.45;;;;;22.20;99252.00;;;;2068160;28;20218;-57
2023/10/14 02:52:19;;;;;;;4.40;3.00;;;;;22.20;99257.00;;;;2064648;28;20643;-57
2023/10/14 02:53:27;;;;;;;3.75;2.47;;;;;22.20;99257.00;;;;2062351;28;20879;-57
2023/10/14 02:54:28;;;;;;;4.30;2.95;;;;;22.20;99255.00;;;;2066858;28;20233;-57
2023/10/14 02:55:50;;;;;;;2.60;2.40;;;;;21.50;99258.00;;;;2066517;28;20226;-56
2023/10/14 02:57:52;;;;;;;3.15;2.55;;;;;22.20;99275.00;;;;2055061;28;20321;-57
2023/10/14 02:58:54;;;;;;;2.67;2.47;;;;;22.20;99273.00;;;;2066491;28;20671;-57
2023/10/14 02:59:58;;;;;;;2.90;2.28;;;;;22.20;99278.00;;;;2068159;28;20221;-57
2023/10/14 03:00:59;;;;;;;3.40;2.38;;;;;22.20;99280.00;;;;2069256;28;20222;-57
2023/10/14 03:02:14;;;;;;;2.77;2.17;;;;;22.20;99273.00;;;;2072246;28;20312;-57
2023/10/14 03:03:15;;;;;;;3.33;2.35;;;;;22.20;99279.00;;;;2055118;28;20222;-56
2023/10/14 03:04:18;;;;;;;2.80;2.50;;;;;22.20;99282.00;;;;2069345;28;20218;-57
2023/10/14 03:05:53;;;;;;;3.65;2.13;;;;;22.20;99279.00;;;;2070109;28;20305;-57
2023/10/14 03:06:53;;;;;;;2.90;2.45;;;;;22.20;99294.00;;;;2061124;28;20644;-57
2023/10/14 03:07:53;;;;;;;3.03;1.88;;;;;22.20;99123.00;;;;2057888;28;20218;-57
2023/10/14 03:09:00;;;;;;;3.37;2.60;;;;;22.10;99305.00;;;;2061592;28;20617;-57
2023/10/14 03:10:18;;;;;;;4.05;2.50;;;;;22.10;99311.00;;;;2068159;28;20222;-57
2023/10/14 03:11:21;;;;;;;3.20;2.35;;;;;22.10;99308.00;;;;2067080;28;20595;-57
2023/10/14 03:12:22;;;;;;;3.22;2.50;;;;;22.10;99324.00;;;;2067375;28;20276;-57
2023/10/14 03:13:22;;;;;;;2.77;2.10;;;;;22.10;99327.00;;;;2055349;28;20276;-57
2023/10/14 03:14:24;;;;;;;2.97;2.20;;;;;22.10;99348.00;;;;2068027;28;20639;-57
2023/10/14 03:15:26;;;;;;;2.75;1.90;;;;;22.20;99340.00;;;;2067137;28;20933;-57
2023/10/14 03:16:26;;;;;;;2.67;2.45;;;;;22.20;99341.00;;;;2068846;28;20226;-57
2023/10/14 03:17:52;;;;;;;3.47;2.77;;;;;22.10;99358.00;;;;2066209;28;20213;-58
2023/10/14 03:18:47;;;;;;;2.45;1.98;;;;;22.10;99374.00;;;;2068467;28;20214;-57
2023/10/14 03:19:52;;;;;;;3.07;2.20;;;;;22.10;99368.00;;;;2072844;28;20249;-57
2023/10/14 03:21:58;;;;;;;3.30;2.60;;;;;22.10;99379.00;;;;2068713;28;21135;-57
2023/10/14 03:22:59;;;;;;;2.53;2.00;;;;;22.10;99390.00;;;;2052910;28;20574;-57
2023/10/14 03:23:59;;;;;;;3.33;2.20;;;;;22.10;99385.00;;;;2064911;28;20232;-57
2023/10/14 03:25:04;;;;;;;3.07;2.10;;;;;22.10;99407.00;;;;2067923;28;20287;-57
2023/10/14 03:26:12;;;;;;;3.05;2.30;;;;;22.10;99403.00;;;;2071812;28;20236;-57
2023/10/14 03:27:15;;;;;;;4.07;2.40;;;;;22.10;99405.00;;;;2068741;28;20214;-57
2023/10/14 03:28:17;;;;;;;2.15;1.95;;;;;22.10;99401.00;;;;2064244;28;20248;-57
2023/10/14 03:29:22;;;;;;;2.85;2.08;;;;;22.10;99409.00;;;;2065296;28;20265;-57
2023/10/14 03:30:23;;;;;;;2.85;1.90;;;;;22.10;99406.00;;;;2067383;28;20222;-57
2023/10/14 03:31:24;;;;;;;3.83;2.00;;;;;22.10;99419.00;;;;2067834;28;20210;-57
2023/10/14 03:32:32;;;;;;;2.90;1.92;;;;;22.10;99427.00;;;;2061376;28;20215;-57
2023/10/14 03:33:32;;;;;;;2.30;1.63;;;;;22.10;99427.00;;;;2065702;28;20217;-57
2023/10/14 03:34:32;;;;;;;4.60;2.20;;;;;22.10;99442.00;;;;2068023;28;20575;-57
2023/10/14 03:35:33;;;;;;;2.03;1.80;;;;;22.10;99439.00;;;;2076610;28;20296;-57
2023/10/14 03:36:34;;;;;;;2.80;1.87;;;;;22.10;99446.00;;;;2073365;28;20705;-57
2023/10/14 03:37:40;;;;;;;1.95;1.70;;;;;22.10;99452.00;;;;2059217;28;20221;-57
2023/10/14 03:38:41;;;;;;;3.78;1.67;;;;;22.10;99450.00;;;;2066506;28;20259;-57
2023/10/14 03:39:46;;;;;;;2.70;2.13;;;;;22.10;99456.00;;;;2068413;28;20213;-58
2023/10/14 03:41:52;;;;;;;3.50;1.80;;;;;22.10;99468.00;;;;2070588;28;20236;-57
2023/10/14 03:42:54;;;;;;;3.15;1.60;;;;;22.10;99466.00;;;;2061067;28;20228;-56
2023/10/14 03:43:58;;;;;;;2.55;1.98;;;;;22.10;99312.00;;;;2066958;28;20202;-57
2023/10/14 03:44:59;;;;;;;1.65;1.35;;;;;22.10;99504.00;;;;2068624;28;20633;-57
2023/10/14 03:46:11;;;;;;;4.73;1.83;;;;;21.30;99477.00;;;;2075498;28;20295;-57
2023/10/14 03:47:17;;;;;;;2.95;1.70;;;;;22.10;99494.00;;;;2072409;28;20212;-57
2023/10/14 03:48:20;;;;;;;2.90;1.80;;;;;21.30;99498.00;;;;2051604;28;20601;-57
2023/10/14 03:49:20;;;;;;;2.65;1.42;;;;;22.10;99492.00;;;;2060572;28;20700;-57
2023/10/14 03:50:24;;;;;;;4.10;1.90;;;;;22.00;99490.00;;;;2061082;28;20222;-57
2023/10/14 03:51:24;;;;;;;3.08;1.85;;;;;22.00;99481.00;;;;2062089;28;20592;-57
2023/10/14 03:52:26;;;;;;;2.87;2.13;;;;;22.10;99485.00;;;;2060693;28;20309;-57
2023/10/14 03:53:30;;;;;;;2.67;1.58;;;;;22.10;99487.00;;;;2058305;28;20237;-57
2023/10/14 03:54:41;;;;;;;2.00;1.45;;;;;22.10;99492.00;;;;2073817;28;20308;-57
2023/10/14 03:55:42;;;;;;;2.97;1.50;;;;;22.10;99488.00;;;;2059267;28;20322;-57
2023/10/14 03:56:45;;;;;;;2.55;1.60;;;;;22.00;99484.00;;;;2073562;28;20248;-57
2023/10/14 03:57:45;;;;;;;2.58;1.98;;;;;22.00;99500.00;;;;2059276;28;20293;-57
2023/10/14 03:58:46;;;;;;;1.87;1.33;;;;;22.00;99530.00;;;;2068693;28;20227;-57
2023/10/14 03:59:49;;;;;;;3.20;1.40;;;;;22.00;99523.00;;;;2069818;28;20293;-57
2023/10/14 04:00:50;;;;;;;3.63;1.40;;;;;22.00;99507.00;;;;2063342;28;20215;-57
2023/10/14 04:01:54;;;;;;;2.63;1.50;;;;;22.00;99498.00;;;;2069589;28;20211;-57
2023/10/14 04:02:57;;;;;;;4.03;1.90;;;;;22.10;99511.00;;;;2055147;28;20489;-57
2023/10/14 04:04:01;;;;;;;2.90;1.67;;;;;22.10;99513.00;;;;2074659;28;20225;-57
2023/10/14 04:05:07;;;;;;;2.95;1.70;;;;;22.10;99514.00;;;;2067647;28;20215;-57
2023/10/14 04:06:14;;;;;;;3.42;1.90;;;;;22.10;99510.00;;;;2067874;28;20272;-57
2023/10/14 04:07:15;;;;;;;1.63;1.23;;;;;22.00;99521.00;;;;2070129;28;20678;-57
2023/10/14 04:08:16;;;;;;;2.83;1.50;;;;;22.10;99514.00;;;;2064968;28;20225;-57
2023/10/14 04:09:22;;;;;;;2.90;1.70;;;;;22.00;99530.00;;;;2073813;28;20210;-57
2023/10/14 04:10:23;;;;;;;3.05;1.58;;;;;22.00;99527.00;;;;2060996;28;20662;-57
2023/10/14 04:11:35;;;;;;;2.77;1.53;;;;;22.00;99531.00;;;;2067174;28;20218;-57
2023/10/14 04:13:40;;;;;;;4.90;1.83;;;;;22.00;99535.00;;;;2072529;28;20209;-57
2023/10/14 04:14:40;;;;;;;1.80;1.30;;;;;22.00;99547.00;;;;2067183;28;20221;-57
2023/10/14 04:15:52;;;;;;;3.20;1.20;;;;;22.00;99548.00;;;;2068952;28;20344;-57
2023/10/14 04:17:09;;;;;;;2.83;1.50;;;;;22.00;99543.00;;;;2067284;28;20312;-57
2023/10/14 04:18:12;;;;;;;2.10;1.40;;;;;22.00;99550.00;;;;2058089;28;20311;-57
2023/10/14 04:19:44;;;;;;;1.75;1.40;;;;;22.00;99461.00;;;;2066740;28;20220;-57
2023/10/14 04:20:46;;;;;;;4.45;1.30;;;;;22.00;99570.00;;;;2068125;28;20581;-56
2023/10/14 04:21:53;;;;;;;2.35;1.33;;;;;22.00;99568.00;;;;2067922;28;20218;-57
2023/10/14 04:22:53;;;;;;;3.75;1.60;;;;;22.00;99571.00;;;;2062161;28;20728;-57
2023/10/14 04:24:08;;;;;;;2.27;1.47;;;;;22.00;99572.00;;;;2076037;28;20233;-57
2023/10/14 04:26:13;;;;;;;2.60;1.30;;;;;22.00;99573.00;;;;2069732;28;20214;-57
2023/10/14 04:28:33;;;;;;;3.10;1.52;;;;;22.00;99576.00;;;;2069821;28;20217;-56
2023/10/14 04:29:39;;;;;;;3.40;1.42;;;;;22.00;99574.00;;;;2060607;28;20214;-57
2023/10/14 04:30:42;;;;;;;1.98;1.35;;;;;22.00;99584.00;;;;2065863;28;20234;-59
2023/10/14 04:31:43;;;;;;;2.70;1.30;;;;;22.00;99579.00;;;;2068982;28;20264;-57
2023/10/14 04:32:47;;;;;;;2.25;1.27;;;;;22.00;99582.00;;;;2065031;28;20205;-57
2023/10/14 04:33:52;;;;;;;2.28;1.10;;;;;22.00;99588.00;;;;2072987;28;20236;-57
2023/10/14 04:34:58;;;;;;;2.95;1.30;;;;;22.00;99585.00;;;;2071085;28;20241;-57
2023/10/14 04:36:09;;;;;;;4.80;1.33;;;;;22.00;99591.00;;;;2075005;28;20232;-57
2023/10/14 04:37:16;;;;;;;4.18;1.80;;;;;22.00;99589.00;;;;2066347;28;20242;-57
2023/10/14 04:38:16;;;;;;;3.35;1.48;;;;;22.00;99595.00;;;;2066282;28;20220;-57
2023/10/14 04:39:25;;;;;;;3.50;1.40;;;;;22.00;99598.00;;;;2081573;28;20223;-57
2023/10/14 04:41:36;;;;;;;1.90;1.20;;;;;22.00;99599.00;;;;2063092;28;20223;-57
2023/10/14 04:42:42;;;;;;;3.05;1.20;;;;;22.00;99627.00;;;;2052682;28;20215;-57
2023/10/14 04:44:56;;;;;;;2.38;1.08;;;;;22.00;99604.00;;;;2070779;28;20621;-56
2023/10/14 04:46:32;;;;;;;4.70;1.30;;;;;22.00;99611.00;;;;2073950;28;20214;-57
2023/10/14 04:47:38;;;;;;;3.42;1.25;;;;;22.00;99621.00;;;;2065149;28;20237;-56
2023/10/14 04:48:39;;;;;;;6.57;1.90;;;;;22.00;99619.00;;;;2070262;28;20280;-58
2023/10/14 04:49:42;;;;;;;3.70;1.43;;;;;22.00;99623.00;;;;2074661;28;20214;-57
2023/10/14 04:50:44;;;;;;;2.10;1.30;;;;;22.00;99626.00;;;;2068321;28;20218;-57
2023/10/14 04:51:47;;;;;;;3.05;1.20;;;;;22.00;99620.00;;;;2069460;28;20693;-56
2023/10/14 04:52:50;;;;;;;2.88;1.10;;;;;22.00;99627.00;;;;2060250;28;20223;-57
2023/10/14 04:53:50;;;;;;;2.65;1.50;;;;;22.00;99619.00;;;;2074754;28;20213;-56
2023/10/14 04:55:06;;;;;;;2.90;1.33;;;;;22.00;99628.00;;;;2067838;28;20202;-57
2023/10/14 04:56:29;;;;;;;3.15;1.17;;;;;22.00;99634.00;;;;2063684;28;20253;-57
2023/10/14 04:57:31;;;;;;;2.28;1.00;;;;;22.00;99637.00;;;;2059118;28;20236;-57
2023/10/14 04:58:32;;;;;;;2.88;1.52;;;;;22.00;99646.00;;;;2072370;28;20301;-56
2023/10/14 04:59:36;;;;;;;4.82;1.83;;;;;22.00;99644.00;;;;2066425;28;20213;-56
2023/10/14 05:00:42;;;;;;;3.40;1.20;;;;;21.90;99647.00;;;;2060890;28;20223;-57
2023/10/14 05:01:42;;;;;;;3.53;1.25;;;;;22.00;99653.00;;;;2077226;28;20599;-56
2023/10/14 05:02:45;;;;;;;2.40;1.10;;;;;21.90;99652.00;;;;2062204;28;20206;-57
2023/10/14 05:03:46;;;;;;;2.55;1.30;;;;;22.00;99658.00;;;;2080392;28;20240;-56
2023/10/14 05:04:51;;;;;;;2.85;1.58;;;;;21.90;99656.00;;;;2067073;28;21232;-57
2023/10/14 05:06:40;;;;;;;4.25;1.35;;;;;21.90;99670.00;;;;2071077;28;20211;-57
2023/10/14 05:07:12;;;;;;;2.53;1.13;;;;;21.90;99658.00;;;;2066663;28;20226;-57
2023/10/14 05:08:15;;;;;;;2.63;1.40;;;;;22.00;99669.00;;;;2072344;28;20209;-57
2023/10/14 05:09:29;;;;;;;3.10;1.10;;;;;22.00;99673.00;;;;2076171;28;20860;-57
2023/10/14 05:10:29;;;;;;;4.75;1.85;;;;;22.00;99671.00;;;;2069226;28;20326;-57
2023/10/14 05:11:35;;;;;;;2.47;1.30;;;;;21.90;99680.00;;;;2068117;28;20748;-57
2023/10/14 05:12:40;;;;;;;4.15;1.38;;;;;21.90;99682.00;;;;2059217;28;20368;-57
2023/10/14 05:13:44;;;;;;;2.78;1.30;;;;;21.90;99676.00;;;;2071328;28;20267;-57
2023/10/14 05:14:45;;;;;;;3.78;1.58;;;;;21.90;99678.00;;;;2067854;28;20219;-57
2023/10/14 05:16:15;;;;;;;2.40;1.33;;;;;21.90;99689.00;;;;2066800;28;20250;-57
2023/10/14 05:17:16;;;;;;;2.63;1.30;;;;;21.90;99683.00;;;;2071521;28;20218;-57
2023/10/14 05:18:17;;;;;;;3.63;1.52;;;;;21.90;99697.00;;;;2061067;28;20209;-57
2023/10/14 05:19:23;;;;;;;2.90;1.53;;;;;21.90;99692.00;;;;2073134;28;20799;-57
2023/10/14 05:20:29;;;;;;;2.53;1.27;;;;;21.90;99694.00;;;;2073896;28;20287;-56
2023/10/14 05:21:36;;;;;;;4.03;1.90;;;;;21.90;99705.00;;;;2068473;28;20349;-56
2023/10/14 05:22:41;;;;;;;4.35;1.48;;;;;21.90;99698.00;;;;2065045;28;20560;-57
2023/10/14 05:23:42;;;;;;;2.20;1.38;;;;;21.90;99697.00;;;;2067953;28;20794;-57
2023/10/14 05:25:08;;;;;;;4.35;1.20;;;;;21.90;99697.00;;;;2082821;28;20717;-57
2023/10/14 05:26:09;;;;;;;3.47;1.38;;;;;21.90;99704.00;;;;2064875;28;20213;-57
2023/10/14 05:27:09;;;;;;;2.50;1.40;;;;;21.90;99715.00;;;;2073566;28;20304;-57
2023/10/14 05:28:10;;;;;;;4.63;1.20;;;;;21.90;99709.00;;;;2068105;28;20217;-56
2023/10/14 05:29:16;;;;;;;2.83;1.35;;;;;21.90;99712.00;;;;2083469;28;20228;-57
2023/10/14 05:30:21;;;;;;;3.33;1.60;;;;;21.90;99671.00;;;;2075531;28;20277;-57
2023/10/14 05:31:23;;;;;;;3.20;1.25;;;;;21.90;99718.00;;;;2076108;28;20305;-56
2023/10/14 05:32:30;;;;;;;3.53;1.30;;;;;21.90;99723.00;;;;2072494;28;20873;-56
2023/10/14 05:33:31;;;;;;;2.47;1.23;;;;;21.90;99724.00;;;;2069886;28;20564;-56
2023/10/14 05:34:32;;;;;;;2.87;1.20;;;;;21.90;99721.00;;;;2069721;28;20233;-57
2023/10/14 05:35:42;;;;;;;4.27;1.80;;;;;21.90;99732.00;;;;2069598;28;20225;-56